createdAt,value
2019-05-12T00:01:32.292Z,38
2019-05-12T00:11:30.662Z,38
2019-05-12T00:21:30.144Z,38
2019-05-12T00:31:30.347Z,38
2019-05-12T00:41:30.130Z,39
2019-05-12T00:51:30.200Z,39
2019-05-12T01:01:32.247Z,39
2019-05-12T01:11:30.556Z,38
2019-05-12T01:21:30.654Z,39
2019-05-12T01:31:30.413Z,38
2019-05-12T01:41:30.422Z,38
2019-05-12T01:51:30.344Z,38
2019-05-12T02:01:29.963Z,38
2019-05-12T02:11:30.750Z,40
2019-05-12T02:21:29.681Z,40
2019-05-12T02:31:31.165Z,40
2019-05-12T02:41:27.888Z,40
2019-05-12T02:51:27.147Z,39
2019-05-12T03:01:28.138Z,40
2019-05-12T03:11:29.122Z,38
2019-05-12T03:21:28.536Z,40
2019-05-12T03:31:47.580Z,39
2019-05-12T03:41:36.725Z,39
2019-05-12T03:51:28.638Z,40
2019-05-12T04:01:28.558Z,41
2019-05-12T04:11:28.323Z,40
2019-05-12T04:21:28.215Z,41
2019-05-12T04:31:27.975Z,40
2019-05-12T04:41:30.440Z,39
2019-05-12T04:51:28.199Z,40
2019-05-12T05:01:28.193Z,39
2019-05-12T05:11:28.319Z,39
2019-05-12T05:21:29.536Z,38
2019-05-12T05:31:28.253Z,38
2019-05-12T05:41:27.852Z,40
2019-05-12T05:51:29.140Z,39
2019-05-12T06:01:28.058Z,40
2019-05-12T06:11:30.487Z,38
2019-05-12T06:21:39.110Z,38
2019-05-12T06:31:34.505Z,40
2019-05-12T06:41:29.265Z,38
2019-05-12T06:51:29.136Z,39
2019-05-12T07:01:29.449Z,40
2019-05-12T07:12:02.628Z,40
2019-05-12T07:21:29.402Z,39
2019-05-12T07:31:27.028Z,40
2019-05-12T07:41:27.635Z,40
2019-05-12T07:51:41.441Z,38
2019-05-12T08:01:27.550Z,39
2019-05-12T08:11:39.518Z,40
2019-05-12T08:21:34.637Z,38
2019-05-12T08:31:43.865Z,38
2019-05-12T08:41:27.798Z,38
2019-05-12T08:51:27.751Z,39
2019-05-12T09:01:34.932Z,38
2019-05-12T09:11:28.069Z,39
2019-05-12T09:21:38.139Z,38
2019-05-12T09:31:33.351Z,38
2019-05-12T09:41:27.386Z,38
2019-05-12T09:51:32.749Z,38
2019-05-12T10:01:42.846Z,38
2019-05-12T10:11:28.635Z,38
2019-05-12T10:21:27.508Z,38
2019-05-12T10:31:39.982Z,37
2019-05-12T10:41:28.680Z,37
2019-05-12T10:51:28.042Z,37
2019-05-12T11:01:28.311Z,37
2019-05-12T11:11:47.805Z,37
2019-05-12T11:21:26.569Z,37
2019-05-12T11:31:35.363Z,37
2019-05-12T11:41:30.438Z,38
2019-05-12T11:51:34.029Z,38
2019-05-12T12:01:27.658Z,37
2019-05-12T12:11:30.018Z,37
2019-05-12T12:21:27.074Z,37
2019-05-12T12:31:39.531Z,39
2019-05-12T12:41:28.067Z,38
2019-05-12T12:51:28.690Z,38
2019-05-12T13:01:36.332Z,38
2019-05-12T13:11:36.253Z,38
2019-05-12T13:21:28.649Z,39
2019-05-12T13:31:29.130Z,39
2019-05-12T13:41:27.622Z,39
2019-05-12T13:51:28.766Z,38
2019-05-12T14:01:45.941Z,40
2019-05-12T14:11:26.828Z,39
2019-05-12T14:21:32.914Z,41
2019-05-12T14:32:02.107Z,39
2019-05-12T14:41:29.323Z,41
2019-05-12T14:51:29.593Z,40
2019-05-12T15:02:03.194Z,41
2019-05-12T15:11:28.843Z,41
2019-05-12T15:21:35.209Z,41
2019-05-12T15:31:28.913Z,41
2019-05-12T15:41:27.818Z,42
2019-05-12T15:51:28.773Z,42
2019-05-12T16:01:28.478Z,41
2019-05-12T16:11:28.261Z,42
2019-05-12T16:21:28.327Z,42
2019-05-12T16:31:27.913Z,41
2019-05-12T16:41:34.439Z,42
2019-05-12T16:51:28.309Z,43
2019-05-12T17:01:33.125Z,43
2019-05-12T17:11:52.725Z,41
2019-05-12T17:21:35.416Z,43
2019-05-12T17:31:28.253Z,43
2019-05-12T17:41:43.238Z,41
2019-05-12T17:51:32.896Z,42
2019-05-12T18:01:36.658Z,43
2019-05-12T18:11:28.794Z,42
2019-05-12T18:21:35.341Z,42
2019-05-12T18:31:28.453Z,42
2019-05-12T18:41:29.120Z,41
2019-05-12T18:51:29.974Z,43
2019-05-12T19:01:27.551Z,42
2019-05-12T19:11:47.529Z,43
2019-05-12T19:21:28.153Z,44
2019-05-12T19:31:28.033Z,44
2019-05-12T19:41:38.778Z,41
2019-05-12T19:51:30.306Z,42
2019-05-12T20:01:35.837Z,42
2019-05-12T20:11:33.173Z,44
2019-05-12T20:21:30.274Z,42
2019-05-12T20:31:29.108Z,44
2019-05-12T20:41:28.941Z,41
2019-05-12T20:51:27.399Z,43
2019-05-12T21:01:34.280Z,44
2019-05-12T21:11:27.787Z,45
2019-05-12T21:21:39.953Z,44
2019-05-12T21:32:20.210Z,43
2019-05-12T21:41:27.932Z,44
2019-05-12T21:51:29.185Z,42
2019-05-12T22:01:28.856Z,42
2019-05-12T22:11:28.965Z,45
2019-05-12T22:21:29.074Z,43
2019-05-12T22:31:29.762Z,42
2019-05-12T22:41:42.261Z,43
2019-05-12T22:51:28.812Z,43
2019-05-12T23:01:57.961Z,43
2019-05-12T23:12:19.854Z,45
2019-05-12T23:21:27.695Z,43
2019-05-12T23:31:33.991Z,44
2019-05-12T23:41:29.269Z,42
2019-05-12T23:51:28.112Z,44
